createdAt,value
2023-03-11T00:00:23.661Z,4.30
2023-03-11T00:02:53.210Z,4.34
2023-03-11T00:05:26.084Z,4.35
2023-03-11T00:07:53.080Z,4.32
2023-03-11T00:10:22.790Z,4.33
2023-03-11T00:12:50.029Z,4.41
2023-03-11T00:15:16.947Z,4.56
2023-03-11T00:17:43.716Z,4.40
2023-03-11T00:20:20.461Z,4.34
2023-03-11T00:22:47.808Z,4.36
2023-03-11T00:25:15.211Z,4.48
2023-03-11T00:27:42.025Z,4.35
2023-03-11T00:30:10.838Z,4.44
2023-03-11T00:32:37.793Z,4.40
2023-03-11T00:35:05.282Z,4.19
2023-03-11T00:37:32.071Z,4.25
2023-03-11T00:39:59.894Z,4.25
2023-03-11T00:42:26.613Z,4.43
2023-03-11T00:44:53.351Z,4.23
2023-03-11T00:47:20.060Z,4.29
2023-03-11T00:49:46.900Z,4.21
2023-03-11T00:52:13.658Z,4.10
2023-03-11T00:54:40.340Z,4.26
2023-03-11T00:57:07.109Z,4.19
2023-03-11T00:59:35.276Z,4.33
2023-03-11T01:02:02.030Z,4.17
2023-03-11T01:04:29.080Z,4.12
2023-03-11T01:06:55.832Z,4.07
2023-03-11T01:09:22.640Z,4.04
2023-03-11T01:11:49.445Z,4.01
2023-03-11T01:14:16.241Z,4.13
2023-03-11T01:16:42.936Z,4.00
2023-03-11T01:19:09.702Z,3.89
2023-03-11T01:21:36.404Z,4.08
2023-03-11T01:24:03.156Z,3.89
2023-03-11T01:26:29.928Z,3.81
2023-03-11T01:28:56.683Z,3.29
2023-03-11T01:31:23.581Z,3.09
2023-03-11T01:33:50.400Z,3.08
2023-03-11T01:36:17.173Z,3.10
2023-03-11T01:38:43.982Z,3.18
2023-03-11T01:41:12.267Z,3.09
2023-03-11T01:43:44.754Z,2.92
2023-03-11T01:46:31.255Z,2.93
2023-03-11T01:49:00.595Z,2.81
2023-03-11T01:51:43.058Z,2.89
2023-03-11T01:54:13.697Z,2.86
2023-03-11T01:56:42.076Z,2.92
2023-03-11T01:59:11.760Z,2.61
2023-03-11T02:01:46.177Z,2.90
2023-03-11T02:04:14.089Z,2.96
2023-03-11T02:06:40.840Z,2.96
2023-03-11T02:09:08.663Z,2.86
2023-03-11T02:11:35.766Z,2.73
2023-03-11T02:14:06.790Z,2.66
2023-03-11T02:16:33.880Z,2.62
2023-03-11T02:19:10.869Z,2.64
2023-03-11T02:21:37.783Z,2.54
2023-03-11T02:24:29.309Z,2.55
2023-03-11T02:26:56.735Z,2.69
2023-03-11T02:29:25.002Z,2.39
2023-03-11T02:31:52.100Z,2.52
2023-03-11T02:34:26.254Z,2.67
2023-03-11T02:36:53.118Z,2.46
2023-03-11T02:39:35.057Z,2.53
2023-03-11T02:42:07.409Z,2.55
2023-03-11T02:44:34.968Z,2.59
2023-03-11T02:47:02.099Z,2.56
2023-03-11T02:49:30.758Z,2.65
2023-03-11T02:51:57.448Z,2.59
2023-03-11T02:54:24.200Z,2.61
2023-03-11T02:56:50.947Z,2.58
2023-03-11T02:59:17.740Z,2.65
2023-03-11T03:01:44.482Z,2.73
2023-03-11T03:04:11.260Z,2.69
2023-03-11T03:06:38.044Z,2.63
2023-03-11T03:09:05.110Z,2.65
2023-03-11T03:11:31.983Z,2.72
2023-03-11T03:13:58.777Z,2.76
2023-03-11T03:16:25.544Z,2.75
2023-03-11T03:18:52.783Z,2.74
2023-03-11T03:21:19.651Z,2.84
2023-03-11T03:23:46.454Z,2.86
2023-03-11T03:26:14.584Z,2.97
2023-03-11T03:28:41.342Z,2.93
2023-03-11T03:31:10.561Z,3.04
2023-03-11T03:33:38.098Z,3.09
2023-03-11T03:36:10.472Z,3.08
2023-03-11T03:38:37.256Z,3.01
2023-03-11T03:41:04.204Z,3.02
2023-03-11T03:43:31.058Z,3.01
2023-03-11T03:46:05.590Z,3.13
2023-03-11T03:48:32.394Z,2.98
2023-03-11T03:51:08.897Z,3.03
2023-03-11T03:53:36.368Z,2.99
2023-03-11T03:56:07.653Z,3.10
2023-03-11T03:58:34.588Z,2.99
2023-03-11T04:01:01.621Z,2.98
2023-03-11T04:03:29.071Z,2.97
2023-03-11T04:06:16.784Z,3.05
2023-03-11T04:08:44.095Z,2.96
2023-03-11T04:11:11.302Z,3.19
2023-03-11T04:13:38.102Z,3.12
2023-03-11T04:16:06.221Z,3.08
2023-03-11T04:18:33.348Z,2.97
2023-03-11T04:21:00.383Z,3.04
2023-03-11T04:23:27.107Z,3.20
2023-03-11T04:25:53.859Z,3.19
2023-03-11T04:28:20.646Z,3.14
2023-03-11T04:30:47.476Z,3.23
2023-03-11T04:33:14.268Z,3.25
2023-03-11T04:35:41.096Z,3.30
2023-03-11T04:38:07.937Z,3.24
2023-03-11T04:40:34.659Z,3.30
2023-03-11T04:43:01.429Z,3.39
2023-03-11T04:45:28.150Z,3.42
2023-03-11T04:47:54.900Z,3.47
2023-03-11T04:50:21.779Z,3.56
2023-03-11T04:52:48.870Z,3.52
2023-03-11T04:55:16.366Z,3.54
2023-03-11T04:57:43.890Z,3.73
2023-03-11T05:00:12.478Z,3.67
2023-03-11T05:02:40.583Z,3.58
2023-03-11T05:05:09.775Z,3.54
2023-03-11T05:07:37.030Z,3.67
2023-03-11T05:10:05.411Z,3.64
2023-03-11T05:12:32.647Z,3.75
2023-03-11T05:14:59.359Z,3.67
2023-03-11T05:17:26.158Z,3.66
2023-03-11T05:19:56.493Z,3.78
2023-03-11T05:22:23.596Z,3.70
2023-03-11T05:24:50.437Z,3.81
2023-03-11T05:27:21.399Z,3.80
2023-03-11T05:29:48.297Z,3.75
2023-03-11T05:32:15.094Z,3.91
2023-03-11T05:34:42.403Z,3.94
2023-03-11T05:37:09.479Z,3.95
2023-03-11T05:39:37.839Z,3.87
2023-03-11T05:42:08.515Z,3.82
2023-03-11T05:44:35.401Z,3.97
2023-03-11T05:47:02.210Z,3.93
2023-03-11T05:49:29.048Z,3.91
2023-03-11T05:51:58.539Z,4.06
2023-03-11T05:54:25.680Z,3.96
2023-03-11T05:56:52.551Z,3.97
2023-03-11T05:59:19.649Z,3.89
2023-03-11T06:01:46.407Z,4.03
2023-03-11T06:04:13.372Z,3.91
2023-03-11T06:06:43.883Z,3.81
2023-03-11T06:09:13.867Z,3.93
2023-03-11T06:11:40.709Z,3.94
2023-03-11T06:14:07.620Z,4.01
2023-03-11T06:16:34.474Z,3.96
2023-03-11T06:19:01.254Z,3.99
2023-03-11T06:21:28.308Z,4.03
2023-03-11T06:23:55.231Z,4.07
2023-03-11T06:26:23.274Z,4.07
2023-03-11T06:28:51.907Z,4.18
2023-03-11T06:31:27.288Z,4.24
2023-03-11T06:33:58.956Z,4.22
2023-03-11T06:36:25.798Z,4.14
2023-03-11T06:38:54.157Z,4.19
2023-03-11T06:41:20.920Z,4.17
2023-03-11T06:43:47.734Z,4.22
2023-03-11T06:46:32.683Z,4.32
2023-03-11T06:48:59.401Z,4.39
2023-03-11T06:51:26.186Z,4.47
2023-03-11T06:53:54.145Z,4.36
2023-03-11T06:56:22.801Z,4.42
2023-03-11T06:58:49.668Z,4.52
2023-03-11T07:01:22.081Z,4.64
2023-03-11T07:03:49.954Z,4.71
2023-03-11T07:06:20.190Z,4.69
2023-03-11T07:08:49.064Z,4.57
2023-03-11T07:11:25.360Z,4.63
2023-03-11T07:13:54.850Z,4.66
2023-03-11T07:16:25.211Z,4.72
2023-03-11T07:18:54.674Z,4.78
2023-03-11T07:21:23.216Z,4.77
2023-03-11T07:23:57.905Z,4.90
2023-03-11T07:26:26.289Z,4.85
2023-03-11T07:28:54.779Z,4.91
2023-03-11T07:31:30.553Z,5.00
2023-03-11T07:33:58.716Z,4.81
2023-03-11T07:36:26.723Z,4.91
2023-03-11T07:38:59.774Z,4.96
2023-03-11T07:41:27.430Z,4.97
2023-03-11T07:43:56.264Z,5.03
2023-03-11T07:46:24.775Z,5.17
2023-03-11T07:48:52.403Z,5.23
2023-03-11T07:51:27.962Z,5.31
2023-03-11T07:53:57.223Z,5.44
2023-03-11T07:56:25.461Z,5.42
2023-03-11T07:58:52.539Z,5.36
2023-03-11T08:01:24.763Z,5.38
2023-03-11T08:03:58.925Z,5.44
2023-03-11T08:06:29.512Z,5.54
2023-03-11T08:08:56.268Z,5.62
2023-03-11T08:11:23.606Z,5.64
2023-03-11T08:13:51.379Z,5.83
2023-03-11T08:16:20.898Z,5.84
2023-03-11T08:18:50.059Z,5.89
2023-03-11T08:21:22.584Z,5.97
2023-03-11T08:23:50.685Z,6.02
2023-03-11T08:26:20.837Z,6.12
2023-03-11T08:28:48.704Z,6.15
2023-03-11T08:31:21.705Z,6.10
2023-03-11T08:33:50.696Z,6.10
2023-03-11T08:36:18.494Z,6.10
2023-03-11T08:38:45.594Z,6.18
2023-03-11T08:41:12.680Z,6.17
2023-03-11T08:43:39.652Z,6.33
2023-03-11T08:46:07.247Z,6.28
2023-03-11T08:48:35.307Z,6.35
2023-03-11T08:51:03.160Z,6.33
2023-03-11T08:53:29.977Z,6.52
2023-03-11T08:55:56.741Z,6.56
2023-03-11T08:58:23.461Z,6.52
2023-03-11T09:00:50.241Z,6.59
2023-03-11T09:03:17.050Z,6.72
2023-03-11T09:05:43.876Z,6.78
2023-03-11T09:08:10.721Z,6.91
2023-03-11T09:10:37.579Z,7.07
2023-03-11T09:13:04.307Z,7.19
2023-03-11T09:15:31.121Z,7.35
2023-03-11T09:17:58.047Z,7.43
2023-03-11T09:20:24.797Z,7.47
2023-03-11T09:22:51.600Z,7.54
2023-03-11T09:25:18.429Z,7.63
2023-03-11T09:27:45.225Z,7.64
2023-03-11T09:30:12.497Z,7.65
2023-03-11T09:32:39.327Z,7.64
2023-03-11T09:35:06.491Z,7.79
2023-03-11T09:37:33.228Z,7.86
2023-03-11T09:40:00.014Z,7.88
2023-03-11T09:42:49.287Z,7.88
2023-03-11T09:45:20.084Z,8.10
2023-03-11T09:48:07.973Z,7.95
2023-03-11T09:51:09.606Z,7.87
2023-03-11T09:53:44.209Z,8.20
2023-03-11T09:56:20.613Z,8.17
2023-03-11T09:58:55.507Z,8.43
2023-03-11T10:01:35.209Z,8.37
2023-03-11T10:04:16.959Z,8.43
2023-03-11T10:06:46.169Z,8.44
2023-03-11T10:09:13.064Z,8.52
2023-03-11T10:11:47.180Z,8.50
2023-03-11T10:14:32.137Z,8.54
2023-03-11T10:17:28.458Z,8.56
2023-03-11T10:20:15.536Z,8.58
2023-03-11T10:23:03.860Z,9.02
2023-03-11T10:25:53.409Z,9.04
2023-03-11T10:28:24.334Z,9.06
2023-03-11T10:31:00.728Z,9.11
2023-03-11T10:33:47.845Z,9.20
2023-03-11T10:36:24.030Z,9.49
2023-03-11T10:38:54.041Z,9.31
2023-03-11T10:41:51.818Z,9.49
2023-03-11T10:44:18.798Z,9.37
2023-03-11T10:46:45.561Z,9.41
2023-03-11T10:49:15.769Z,9.51
2023-03-11T10:51:46.924Z,9.60
2023-03-11T10:54:30.030Z,9.57
2023-03-11T10:57:05.504Z,9.53
2023-03-11T10:59:50.654Z,9.68
2023-03-11T11:02:26.353Z,9.64
2023-03-11T11:05:28.580Z,9.59
2023-03-11T11:08:13.633Z,9.94
2023-03-11T11:10:54.122Z,9.83
2023-03-11T11:13:23.635Z,9.93
2023-03-11T11:16:03.476Z,10.21
2023-03-11T11:18:49.509Z,10.15
2023-03-11T11:21:29.077Z,10.01
2023-03-11T11:24:20.188Z,9.98
2023-03-11T11:27:14.560Z,9.96
2023-03-11T11:29:41.758Z,9.94
2023-03-11T11:32:20.981Z,10.06
2023-03-11T11:35:01.253Z,10.27
2023-03-11T11:37:32.259Z,10.32
2023-03-11T11:40:21.825Z,10.40
2023-03-11T11:43:03.611Z,10.54
2023-03-11T11:45:35.056Z,10.65
2023-03-11T11:48:24.361Z,10.75
2023-03-11T11:50:58.446Z,10.71
2023-03-11T11:53:41.176Z,10.77
2023-03-11T11:56:08.134Z,10.78
2023-03-11T11:58:35.702Z,10.89
2023-03-11T12:01:19.862Z,10.93
2023-03-11T12:04:02.459Z,11.00
2023-03-11T12:06:41.546Z,11.25
2023-03-11T12:09:24.434Z,11.26
2023-03-11T12:12:04.506Z,11.35
2023-03-11T12:14:39.378Z,11.39
2023-03-11T12:17:08.740Z,11.47
2023-03-11T12:19:40.310Z,11.60
2023-03-11T12:22:15.913Z,11.74
2023-03-11T12:25:05.341Z,12.02
2023-03-11T12:27:43.240Z,12.10
2023-03-11T12:30:30.379Z,12.13
2023-03-11T12:33:05.099Z,12.06
2023-03-11T12:35:34.886Z,12.13
2023-03-11T12:38:01.555Z,12.22
2023-03-11T12:41:00.611Z,11.88
2023-03-11T12:43:36.356Z,12.00
2023-03-11T12:46:06.230Z,11.84
2023-03-11T12:49:04.633Z,11.95
2023-03-11T12:51:34.462Z,12.06
2023-03-11T12:54:21.524Z,12.15
2023-03-11T12:57:21.515Z,12.12
2023-03-11T13:00:00.260Z,12.27
2023-03-11T13:02:47.613Z,12.48
2023-03-11T13:05:53.053Z,12.73
2023-03-11T13:08:23.239Z,13.08
2023-03-11T13:10:55.570Z,13.27
2023-03-11T13:13:43.022Z,13.44
2023-03-11T13:16:39.884Z,13.73
2023-03-11T13:19:48.958Z,13.87
2023-03-11T13:22:42.609Z,13.99
2023-03-11T13:25:45.789Z,13.88
2023-03-11T13:28:44.264Z,13.80
2023-03-11T13:31:29.856Z,13.76
2023-03-11T13:34:26.287Z,13.91
2023-03-11T13:37:11.639Z,13.74
2023-03-11T13:39:43.973Z,13.94
2023-03-11T13:42:40.480Z,14.10
2023-03-11T13:45:14.216Z,14.20
2023-03-11T13:47:46.462Z,14.18
2023-03-11T13:50:24.005Z,14.20
2023-03-11T13:52:53.913Z,14.40
2023-03-11T13:55:27.036Z,14.35
2023-03-11T13:57:56.560Z,14.54
2023-03-11T14:00:28.595Z,14.76
2023-03-11T14:02:58.688Z,14.86
2023-03-11T14:05:30.199Z,15.09
2023-03-11T14:08:27.392Z,15.19
2023-03-11T14:10:59.496Z,15.28
2023-03-11T14:13:31.303Z,15.01
2023-03-11T14:16:07.858Z,15.04
2023-03-11T14:18:40.964Z,14.97
2023-03-11T14:21:12.964Z,14.88
2023-03-11T14:23:49.018Z,14.98
2023-03-11T14:26:20.259Z,14.95
2023-03-11T14:28:49.740Z,14.80
2023-03-11T14:31:25.834Z,14.56
2023-03-11T14:34:04.750Z,14.61
2023-03-11T14:36:43.615Z,14.55
2023-03-11T14:39:30.756Z,14.27
2023-03-11T14:42:20.134Z,14.21
2023-03-11T14:44:52.524Z,14.17
2023-03-11T14:47:46.160Z,14.17
2023-03-11T14:50:19.195Z,14.04
2023-03-11T14:52:51.143Z,14.03
2023-03-11T14:55:22.354Z,13.86
2023-03-11T14:57:54.754Z,13.75
2023-03-11T15:00:28.772Z,13.80
2023-03-11T15:03:31.167Z,13.72
2023-03-11T15:06:00.923Z,13.71
2023-03-11T15:08:32.007Z,13.70
2023-03-11T15:11:04.675Z,13.72
2023-03-11T15:13:31.670Z,13.74
2023-03-11T15:16:03.440Z,13.75
2023-03-11T15:18:38.871Z,13.79
2023-03-11T15:21:13.100Z,13.71
2023-03-11T15:23:45.083Z,13.72
2023-03-11T15:26:21.571Z,13.72
2023-03-11T15:28:59.335Z,13.60
2023-03-11T15:31:37.230Z,13.62
2023-03-11T15:34:20.202Z,13.58
2023-03-11T15:36:49.646Z,13.53
2023-03-11T15:39:30.818Z,13.48
2023-03-11T15:42:02.142Z,13.45
2023-03-11T15:45:04.936Z,13.54
2023-03-11T15:47:31.790Z,13.57
2023-03-11T15:50:02.366Z,13.64
2023-03-11T15:52:29.154Z,13.62
2023-03-11T15:54:56.331Z,13.69
2023-03-11T15:57:30.186Z,13.92
2023-03-11T16:00:00.129Z,13.89
2023-03-11T16:02:29.437Z,13.89
2023-03-11T16:04:57.080Z,13.91
2023-03-11T16:07:38.764Z,14.14
2023-03-11T16:10:07.700Z,14.23
2023-03-11T16:12:34.801Z,14.09
2023-03-11T16:15:01.870Z,14.20
2023-03-11T16:17:39.562Z,14.17
2023-03-11T16:20:13.822Z,14.10
2023-03-11T16:22:40.774Z,13.89
2023-03-11T16:25:15.053Z,14.00
2023-03-11T16:27:41.802Z,13.99
2023-03-11T16:30:10.163Z,14.06
2023-03-11T16:32:37.232Z,13.97
2023-03-11T16:35:04.699Z,13.98
2023-03-11T16:37:31.396Z,14.02
2023-03-11T16:39:58.566Z,14.11
2023-03-11T16:42:28.405Z,14.11
2023-03-11T16:44:55.107Z,14.00
2023-03-11T16:47:21.918Z,13.88
2023-03-11T16:49:53.490Z,13.89
2023-03-11T16:52:21.142Z,13.68
2023-03-11T16:54:48.005Z,13.68
2023-03-11T16:57:14.835Z,13.54
2023-03-11T16:59:41.977Z,13.57
2023-03-11T17:02:11.797Z,13.45
2023-03-11T17:04:38.705Z,13.31
2023-03-11T17:07:06.633Z,13.17
2023-03-11T17:09:35.374Z,13.20
2023-03-11T17:12:03.393Z,13.10
2023-03-11T17:14:32.247Z,13.09
2023-03-11T17:16:59.729Z,13.19
2023-03-11T17:19:26.509Z,13.08
2023-03-11T17:21:53.233Z,13.19
2023-03-11T17:24:20.127Z,13.24
2023-03-11T17:26:46.877Z,13.29
2023-03-11T17:29:13.614Z,13.12
2023-03-11T17:31:40.380Z,12.91
2023-03-11T17:34:07.169Z,12.96
2023-03-11T17:36:33.910Z,12.93
2023-03-11T17:39:00.645Z,12.88
2023-03-11T17:41:27.393Z,12.87
2023-03-11T17:43:54.343Z,12.81
2023-03-11T17:46:22.670Z,12.79
2023-03-11T17:48:50.542Z,12.86
2023-03-11T17:51:20.428Z,12.82
2023-03-11T17:53:48.633Z,12.86
2023-03-11T17:56:18.652Z,12.73
2023-03-11T17:58:45.459Z,12.76
2023-03-11T18:01:21.760Z,12.71
2023-03-11T18:03:48.989Z,12.41
2023-03-11T18:06:17.964Z,12.41
2023-03-11T18:08:45.245Z,12.40
2023-03-11T18:11:17.568Z,12.45
2023-03-11T18:13:45.940Z,12.37
2023-03-11T18:16:15.833Z,12.39
2023-03-11T18:18:43.174Z,12.35
2023-03-11T18:21:18.608Z,12.33
2023-03-11T18:23:45.999Z,12.41
2023-03-11T18:26:15.777Z,12.38
2023-03-11T18:28:43.032Z,12.41
2023-03-11T18:31:15.023Z,12.37
2023-03-11T18:33:46.275Z,12.30
2023-03-11T18:36:22.253Z,12.30
2023-03-11T18:38:49.599Z,12.23
2023-03-11T18:41:16.519Z,12.34
2023-03-11T18:43:43.666Z,12.16
2023-03-11T18:46:14.895Z,12.25
2023-03-11T18:48:41.512Z,12.27
2023-03-11T18:51:09.453Z,12.22
2023-03-11T18:53:36.666Z,12.29
2023-03-11T18:56:06.468Z,12.20
2023-03-11T18:58:33.561Z,12.14
2023-03-11T19:01:06.724Z,12.29
2023-03-11T19:03:34.455Z,12.23
2023-03-11T19:06:01.713Z,12.23
2023-03-11T19:08:28.752Z,12.24
2023-03-11T19:10:56.212Z,12.28
2023-03-11T19:13:23.190Z,12.21
2023-03-11T19:15:50.375Z,12.02
2023-03-11T19:18:17.315Z,12.02
2023-03-11T19:20:44.134Z,12.06
2023-03-11T19:23:11.513Z,12.01
2023-03-11T19:25:38.450Z,11.94
2023-03-11T19:28:05.247Z,12.01
2023-03-11T19:30:32.757Z,11.86
2023-03-11T19:32:59.554Z,11.85
2023-03-11T19:35:26.331Z,11.87
2023-03-11T19:37:57.118Z,11.97
2023-03-11T19:40:24.162Z,12.03
2023-03-11T19:42:50.877Z,11.92
2023-03-11T19:45:17.750Z,11.89
2023-03-11T19:47:46.593Z,11.92
2023-03-11T19:50:13.389Z,11.99
2023-03-11T19:52:40.214Z,11.93
2023-03-11T19:55:07.648Z,11.84
2023-03-11T19:57:34.602Z,11.73
2023-03-11T20:00:01.558Z,11.82
2023-03-11T20:02:28.375Z,11.92
2023-03-11T20:04:55.226Z,11.95
2023-03-11T20:07:22.299Z,12.00
2023-03-11T20:09:49.059Z,12.11
2023-03-11T20:12:16.212Z,12.06
2023-03-11T20:14:43.245Z,11.90
2023-03-11T20:17:09.967Z,11.85
2023-03-11T20:19:36.776Z,12.08
2023-03-11T20:22:03.819Z,12.09
2023-03-11T20:24:30.574Z,12.12
2023-03-11T20:26:57.366Z,12.02
2023-03-11T20:29:24.501Z,12.08
2023-03-11T20:31:51.491Z,12.09
2023-03-11T20:34:18.374Z,12.03
2023-03-11T20:36:45.273Z,11.96
2023-03-11T20:39:12.258Z,11.89
2023-03-11T20:41:40.866Z,11.90
2023-03-11T20:44:09.101Z,11.86
2023-03-11T20:46:36.032Z,11.81
2023-03-11T20:49:03.624Z,11.75
2023-03-11T20:51:30.537Z,11.72
2023-03-11T20:53:57.559Z,11.69
2023-03-11T20:56:26.110Z,11.63
2023-03-11T20:58:55.914Z,11.63
2023-03-11T21:01:29.615Z,11.58
2023-03-11T21:03:59.210Z,11.51
2023-03-11T21:06:32.876Z,11.47
2023-03-11T21:09:03.172Z,11.58
2023-03-11T21:11:29.984Z,11.53
2023-03-11T21:13:59.617Z,11.59
2023-03-11T21:16:27.263Z,11.57
2023-03-11T21:18:54.397Z,11.53
2023-03-11T21:21:21.829Z,11.48
2023-03-11T21:23:49.443Z,11.51
2023-03-11T21:26:17.028Z,11.57
2023-03-11T21:28:47.183Z,11.26
2023-03-11T21:31:22.384Z,11.16
2023-03-11T21:33:53.715Z,11.04
2023-03-11T21:36:20.590Z,11.04
2023-03-11T21:38:47.846Z,10.80
2023-03-11T21:41:25.694Z,10.86
2023-03-11T21:43:54.850Z,10.82
2023-03-11T21:46:24.780Z,10.80
2023-03-11T21:48:51.676Z,10.78
2023-03-11T21:51:19.879Z,10.70
2023-03-11T21:53:47.006Z,10.63
2023-03-11T21:56:14.167Z,10.70
2023-03-11T21:58:41.770Z,10.70
2023-03-11T22:01:10.056Z,10.81
2023-03-11T22:03:37.820Z,10.84
2023-03-11T22:06:10.075Z,11.00
2023-03-11T22:08:37.133Z,11.09
2023-03-11T22:11:08.205Z,11.13
2023-03-11T22:13:35.176Z,11.12
2023-03-11T22:16:04.267Z,11.25
2023-03-11T22:18:31.048Z,11.27
2023-03-11T22:21:01.244Z,11.38
2023-03-11T22:23:28.301Z,11.19
2023-03-11T22:25:55.454Z,11.12
2023-03-11T22:28:22.555Z,11.28
2023-03-11T22:30:49.321Z,11.15
2023-03-11T22:33:16.105Z,11.13
2023-03-11T22:35:57.135Z,11.50
2023-03-11T22:38:24.278Z,11.38
2023-03-11T22:40:51.578Z,11.43
2023-03-11T22:43:18.346Z,11.29
2023-03-11T22:45:45.818Z,11.27
2023-03-11T22:48:12.583Z,11.15
2023-03-11T22:50:44.601Z,11.17
2023-03-11T22:53:12.520Z,11.20
2023-03-11T22:55:44.439Z,11.18
2023-03-11T22:58:12.528Z,11.13
2023-03-11T23:00:39.717Z,11.03
2023-03-11T23:03:07.345Z,10.95
2023-03-11T23:05:40.837Z,10.81
2023-03-11T23:08:13.028Z,10.95
2023-03-11T23:10:48.792Z,10.93
2023-03-11T23:13:16.185Z,10.75
2023-03-11T23:15:44.736Z,10.69
2023-03-11T23:18:12.941Z,10.74
2023-03-11T23:20:41.208Z,10.75
2023-03-11T23:23:09.426Z,10.79
2023-03-11T23:25:36.185Z,10.73
2023-03-11T23:28:05.835Z,10.89
2023-03-11T23:30:33.201Z,10.93
2023-03-11T23:33:02.603Z,10.62
2023-03-11T23:35:29.476Z,10.60
2023-03-11T23:37:56.234Z,10.57
2023-03-11T23:40:23.015Z,10.51
2023-03-11T23:42:50.862Z,10.51
2023-03-11T23:45:17.917Z,10.43
2023-03-11T23:47:44.688Z,10.47
2023-03-11T23:50:11.777Z,10.47
2023-03-11T23:52:38.491Z,10.46
2023-03-11T23:55:05.657Z,10.43
2023-03-11T23:57:35.779Z,10.50
